createdAt,value
2022-09-20T00:04:04.436Z,7.90
2022-09-20T00:09:06.019Z,6.05
2022-09-20T00:14:08.297Z,4.97
2022-09-20T00:19:20.284Z,6.40
2022-09-20T00:24:21.812Z,4.95
2022-09-20T00:29:23.343Z,7.15
2022-09-20T00:34:24.981Z,8.43
2022-09-20T00:39:26.597Z,7.28
2022-09-20T00:44:57.306Z,9.55
2022-09-20T00:50:05.749Z,6.90
2022-09-20T00:55:08.468Z,8.63
2022-09-20T01:00:11.698Z,6.40
2022-09-20T01:05:15.686Z,10.77
2022-09-20T01:10:17.643Z,5.63
2022-09-20T01:15:20.621Z,10.70
2022-09-20T01:20:31.593Z,8.65
2022-09-20T01:26:01.909Z,9.27
2022-09-20T01:31:23.183Z,9.35
2022-09-20T01:36:31.336Z,8.40
2022-09-20T01:41:45.629Z,7.57
2022-09-20T01:46:53.553Z,6.15
2022-09-20T01:52:10.097Z,7.35
2022-09-20T01:57:42.251Z,6.35
2022-09-20T02:02:52.816Z,7.15
2022-09-20T02:08:11.113Z,8.50
2022-09-20T02:13:32.176Z,8.02
2022-09-20T02:18:36.476Z,5.60
2022-09-20T02:24:05.945Z,12.18
2022-09-20T02:29:13.267Z,5.78
2022-09-20T02:34:48.649Z,8.98
2022-09-20T02:39:59.174Z,8.13
2022-09-20T02:45:15.481Z,11.60
2022-09-20T02:50:45.365Z,9.13
2022-09-20T02:56:17.369Z,11.80
2022-09-20T03:01:24.730Z,12.05
2022-09-20T03:06:47.213Z,11.25
2022-09-20T03:12:14.394Z,9.75
2022-09-20T03:22:55.922Z,7.88
2022-09-20T03:28:25.217Z,10.38
2022-09-20T03:33:32.378Z,7.60
2022-09-20T03:38:43.015Z,8.52
2022-09-20T03:43:56.555Z,8.65
2022-09-20T03:49:19.887Z,9.98
2022-09-20T03:54:48.959Z,6.03
2022-09-20T04:00:07.148Z,8.63
2022-09-20T04:05:18.288Z,7.78
2022-09-20T04:10:28.632Z,8.35
2022-09-20T04:15:31.157Z,9.07
2022-09-20T04:20:56.304Z,9.02
2022-09-20T04:26:01.320Z,7.35
2022-09-20T04:31:16.334Z,9.07
2022-09-20T04:36:36.981Z,7.03
2022-09-20T04:41:47.724Z,7.50
2022-09-20T04:47:20.471Z,7.82
2022-09-20T04:52:33.869Z,6.72
2022-09-20T04:58:29.931Z,7.82
2022-09-20T05:03:59.231Z,9.00
2022-09-20T05:09:12.995Z,4.88
2022-09-20T05:14:36.444Z,8.30
2022-09-20T05:19:47.063Z,10.77
2022-09-20T05:24:54.611Z,3.17
2022-09-20T05:30:33.090Z,5.22
2022-09-20T05:35:43.786Z,8.98
2022-09-20T05:41:08.267Z,8.82
2022-09-20T05:46:27.773Z,4.82
2022-09-20T05:51:41.297Z,7.65
2022-09-20T05:57:13.506Z,8.93
2022-09-20T06:02:27.968Z,6.57
2022-09-20T06:07:35.383Z,6.22
2022-09-20T06:13:03.993Z,8.02
2022-09-20T06:18:11.564Z,8.63
2022-09-20T06:23:13.350Z,5.47
2022-09-20T06:28:24.051Z,8.40
2022-09-20T06:33:28.332Z,9.05
2022-09-20T06:38:46.193Z,10.25
2022-09-20T06:43:47.739Z,11.25
2022-09-20T06:48:49.235Z,9.68
2022-09-20T06:53:51.487Z,9.00
2022-09-20T06:58:53.267Z,7.32
2022-09-20T07:03:54.861Z,7.10
2022-09-20T07:08:56.394Z,9.80
2022-09-20T07:13:57.967Z,7.45
2022-09-20T07:18:59.601Z,10.73
2022-09-20T07:24:01.385Z,7.60
2022-09-20T07:29:02.901Z,7.93
2022-09-20T07:34:04.485Z,6.60
2022-09-20T07:39:06.051Z,10.52
2022-09-20T07:44:07.624Z,4.70
2022-09-20T07:49:09.148Z,6.47
2022-09-20T07:54:10.675Z,6.93
2022-09-20T07:59:13.111Z,8.85
2022-09-20T08:04:14.625Z,5.57
2022-09-20T08:09:16.272Z,5.00
2022-09-20T08:14:18.338Z,8.45
2022-09-20T08:19:22.075Z,5.10
2022-09-20T08:24:23.781Z,9.23
2022-09-20T08:29:25.700Z,7.88
2022-09-20T08:34:27.475Z,7.22
2022-09-20T08:45:34.936Z,5.22
2022-09-20T08:50:37.254Z,4.87
2022-09-20T08:55:40.384Z,7.68
2022-09-20T09:00:45.608Z,5.38
2022-09-20T09:05:49.835Z,8.93
2022-09-20T09:11:01.862Z,5.57
2022-09-20T09:16:13.997Z,5.70
2022-09-20T09:21:28.471Z,5.43
2022-09-20T09:26:37.582Z,4.63
2022-09-20T09:31:39.144Z,4.47
2022-09-20T09:36:44.246Z,2.97
2022-09-20T09:41:45.795Z,4.40
2022-09-20T09:46:47.486Z,5.80
2022-09-20T09:52:13.750Z,6.07
2022-09-20T09:57:34.824Z,5.43
2022-09-20T10:03:04.419Z,3.85
2022-09-20T10:08:24.698Z,8.23
2022-09-20T10:13:55.168Z,3.85
2022-09-20T10:19:15.096Z,6.03
2022-09-20T10:24:27.039Z,4.18
2022-09-20T10:29:56.688Z,4.30
2022-09-20T10:35:25.717Z,5.80
2022-09-20T10:40:38.842Z,6.75
2022-09-20T10:46:27.581Z,2.75
2022-09-20T10:51:33.615Z,5.60
2022-09-20T10:56:43.140Z,4.70
2022-09-20T11:01:47.723Z,3.60
2022-09-20T11:07:26.238Z,4.32
2022-09-20T11:12:27.912Z,6.45
2022-09-20T11:17:36.075Z,4.30
2022-09-20T11:22:43.655Z,5.13
2022-09-20T11:28:01.424Z,10.73
2022-09-20T11:33:15.002Z,7.05
2022-09-20T11:38:27.645Z,4.05
2022-09-20T11:43:30.263Z,5.97
2022-09-20T11:49:10.925Z,3.40
2022-09-20T11:54:37.372Z,7.38
2022-09-20T11:59:48.818Z,5.75
2022-09-20T12:10:05.852Z,4.80
2022-09-20T12:15:31.887Z,3.70
2022-09-20T12:20:33.365Z,2.42
2022-09-20T12:25:39.119Z,3.58
2022-09-20T12:30:40.670Z,3.73
2022-09-20T12:35:58.975Z,3.40
2022-09-20T12:41:13.748Z,2.95
2022-09-20T12:46:26.679Z,7.30
2022-09-20T12:51:33.048Z,3.00
2022-09-20T12:56:41.362Z,1.13
2022-09-20T13:01:42.878Z,2.65
2022-09-20T13:06:44.454Z,4.03
2022-09-20T13:11:56.667Z,3.85
2022-09-20T13:17:19.207Z,1.75
2022-09-20T13:22:26.485Z,1.88
2022-09-20T13:27:49.991Z,1.52
2022-09-20T13:32:53.154Z,2.75
2022-09-20T13:38:01.762Z,1.55
2022-09-20T13:43:23.987Z,5.07
2022-09-20T13:48:30.200Z,4.35
2022-09-20T13:53:47.102Z,5.53
2022-09-20T13:58:50.172Z,2.45
2022-09-20T14:03:53.078Z,4.13
2022-09-20T14:08:56.197Z,5.20
2022-09-20T14:14:04.924Z,5.07
2022-09-20T14:19:08.214Z,5.47
2022-09-20T14:24:16.173Z,3.10
2022-09-20T14:29:39.001Z,6.93
2022-09-20T14:34:41.454Z,3.65
2022-09-20T14:39:53.950Z,2.20
2022-09-20T14:44:55.719Z,1.52
2022-09-20T14:49:58.407Z,1.20
2022-09-20T14:55:19.176Z,3.30
2022-09-20T15:00:20.830Z,1.98
2022-09-20T15:05:27.250Z,3.50
2022-09-20T15:10:28.803Z,4.75
2022-09-20T15:15:30.315Z,2.85
2022-09-20T15:20:32.067Z,3.17
2022-09-20T15:25:33.700Z,1.27
2022-09-20T15:30:35.992Z,2.78
2022-09-20T15:35:41.859Z,4.18
2022-09-20T15:45:51.800Z,2.97
2022-09-20T15:51:08.077Z,2.03
2022-09-20T15:56:22.865Z,1.70
2022-09-20T16:01:29.467Z,3.50
2022-09-20T16:06:31.891Z,2.42
2022-09-20T16:11:34.168Z,3.03
2022-09-20T16:16:40.079Z,3.22
2022-09-20T16:21:44.360Z,2.80
2022-09-20T16:26:45.861Z,3.30
2022-09-20T16:31:49.372Z,4.40
2022-09-20T16:36:52.992Z,5.57
2022-09-20T16:42:02.985Z,1.25
2022-09-20T16:47:06.500Z,2.22
2022-09-20T16:52:09.117Z,2.15
2022-09-20T16:57:10.658Z,2.28
2022-09-20T17:02:12.279Z,3.28
2022-09-20T17:07:13.799Z,6.03
2022-09-20T17:12:15.335Z,1.75
2022-09-20T17:17:16.813Z,1.77
2022-09-20T17:22:18.331Z,3.92
2022-09-20T17:27:19.795Z,2.55
2022-09-20T17:32:21.292Z,5.43
2022-09-20T17:37:22.854Z,5.97
2022-09-20T17:42:24.375Z,2.88
2022-09-20T17:47:25.908Z,6.38
2022-09-20T17:52:27.392Z,3.78
2022-09-20T17:57:28.907Z,3.22
2022-09-20T18:02:30.695Z,2.80
2022-09-20T18:07:32.219Z,4.68
2022-09-20T18:12:33.717Z,3.10
2022-09-20T18:17:35.207Z,4.25
2022-09-20T18:22:36.764Z,2.67
2022-09-20T18:27:38.253Z,4.25
2022-09-20T18:32:39.780Z,4.88
2022-09-20T18:37:41.272Z,4.00
2022-09-20T18:42:42.751Z,5.30
2022-09-20T18:47:44.232Z,4.40
2022-09-20T18:52:45.793Z,8.88
2022-09-20T18:57:47.504Z,6.38
2022-09-20T19:03:10.119Z,5.55
2022-09-20T19:08:31.597Z,4.10
2022-09-20T19:13:51.347Z,4.03
2022-09-20T19:19:11.612Z,9.32
2022-09-20T19:24:28.373Z,7.43
2022-09-20T19:29:30.241Z,5.63
2022-09-20T19:34:33.109Z,4.32
2022-09-20T19:39:49.435Z,6.20
2022-09-20T19:45:02.685Z,5.83
2022-09-20T19:50:15.575Z,9.50
2022-09-20T19:55:17.553Z,8.52
2022-09-20T20:00:21.048Z,8.10
2022-09-20T20:05:23.525Z,6.82
2022-09-20T20:10:37.800Z,5.22
2022-09-20T20:15:46.577Z,6.10
2022-09-20T20:20:50.061Z,7.72
2022-09-20T20:26:05.560Z,4.85
2022-09-20T20:31:07.115Z,7.70
2022-09-20T20:36:09.533Z,7.90
2022-09-20T20:41:13.863Z,3.88
2022-09-20T20:46:17.691Z,6.82
2022-09-20T20:51:21.638Z,9.07
2022-09-20T20:56:28.640Z,5.60
2022-09-20T21:01:32.506Z,7.00
2022-09-20T21:06:35.851Z,5.10
2022-09-20T21:11:40.075Z,7.35
2022-09-20T21:16:43.363Z,5.60
2022-09-20T21:21:46.691Z,8.00
2022-09-20T21:26:48.201Z,5.70
2022-09-20T21:31:49.693Z,6.25
2022-09-20T21:36:51.169Z,8.02
2022-09-20T21:41:52.668Z,3.78
2022-09-20T21:46:54.174Z,6.55
2022-09-20T21:51:55.676Z,7.82
2022-09-20T21:56:57.200Z,4.97
2022-09-20T22:01:58.876Z,7.63
2022-09-20T22:07:00.536Z,6.00
2022-09-20T22:12:02.235Z,5.38
2022-09-20T22:17:03.760Z,7.65
2022-09-20T22:22:05.289Z,5.63
2022-09-20T22:27:06.815Z,7.68
2022-09-20T22:32:20.345Z,8.10
2022-09-20T22:37:21.866Z,7.57
2022-09-20T22:42:23.433Z,8.45
2022-09-20T22:47:25.306Z,6.72
2022-09-20T22:52:26.793Z,8.27
2022-09-20T23:04:05.489Z,8.27
2022-09-20T23:09:10.552Z,6.82
2022-09-20T23:14:14.994Z,9.55
2022-09-20T23:19:17.009Z,13.23
2022-09-20T23:24:31.522Z,13.35
2022-09-20T23:29:33.024Z,11.45
2022-09-20T23:34:34.563Z,10.43
2022-09-20T23:39:53.640Z,10.60
2022-09-20T23:44:55.364Z,13.48
2022-09-20T23:49:56.870Z,12.13
2022-09-20T23:55:39.595Z,9.40
